Adak, AK (99546)

1:45 PM HADT on August 20, 2014 (GMT -0900)
Adak | Change Station
CLOSE
Current Station
Airport
Location: Adak,
Elevation: 13 ft
Nearby Weather Stations

Elev 13 ft 51.88 °N, 176.65 °W | Updated 9 minutes ago

Overcast
Overcast
54 °F
Feels Like 54 °F
N
24
Wind Variable Wind from South
Gusts 31 mph

Today
High -- | Low -- °F
--% Chance of Precip.
Yesterday
High -- | Low -- °F
Precip. -- in
7:39 AM 9:59 PM
Waning Crescent, 18% visible
Pressure 29.81 in
Visibility 5.0 miles
Clouds Overcast 600 ft
Dew Point 50 °F
Humidity 88%
Rainfall 0.44 in
Snow Depth Not available.
UV 2 out of 12
Pollen Not available.
Air Quality Not available.
Flu Activity Not available.
METAR PADK 202236Z 17021G27KT 5SM OVC006 12/10 A2981 RMK AO1 P0001

More Conditions Fewer Conditions

Pressure 29.81 in
Visibility 5.0 miles
Clouds Overcast 600 ft
Dew Point 50 °F
Humidity 88%
Rainfall 0.44 in
Snow Depth Not available.
UV 2 out of 12
Pollen Not available.
Air Quality Not available.
Flu Activity Not available.
METAR PADK 202236Z 17021G27KT 5SM OVC006 12/10 A2981 RMK AO1 P0001

More Conditions Fewer Conditions

10-Day Weather Forecast

Almanac

Astronomy

Aug. 20, 2014 Rise Set
Actual Time 7:39 AM HADT 9:59 PM HADT
Civil Twilight 7:02 AM HADT 10:35 PM HADT
Nautical Twilight 6:15 AM HADT 11:22 PM HADT
Astronomical Twilight 5:20 AM HADT 12:16 AM HADT
Moon 3:18 AM HADT 7:07 PM HADT
Length of Visible Light 15h 33m
Length of Day
14h 19m
Tomorrow will be 3m 45s shorter.
Waning Crescent, 18% of the Moon is Illuminated
Today
Waning Crescent
Aug 25
New
Sep 2
First Quarter
Sep 8
Full
Sep 15
Last Quarter

Today's Extremes

State Highs State Lows

Community

WunderPhotos

Upload Photos

1,745,791 photos uploaded!

Nearby

Snow Depth

Station Depth Elevation
Rocky Point 4 in 500 ft
Mcneil Canyon 1 in 1320 ft
MF Bradley River 308 in 2300 ft
Cooper Lake 36 in 1200 ft
Grouse Creek Divide 0 in 700 ft

Earthquake Activity

City Distance Mag. Time & Date
No recent earthquake activity has been reported nearby.
Minimum magnitude displayed is 2.5.

Coastal Water Temperatures

Place Temperature
No Stations Reporting

Nearby Weather Stations